Time;durP1;ratioP1;P1;durP2;ratioP2;P2;SDS_P1;SDS_P2;PMS_P1;PMS_P2;Temp;Humidity;BMP_temperature;BMP_pressure;BME280_temperature;BME280_humidity;BME280_pressure;Samples;Min_cycle;Max_cycle;Signal;HPM_P1;HPM_P2
2021/08/31 00:00:14;;;;;;;;;;;;;;;13.85;84.30;97752.27;1710919;83;21988;-89
2021/08/31 00:02:42;;;;;;;;;;;;;;;13.85;84.35;97739.61;1719851;81;21729;-89
2021/08/31 00:05:10;;;;;;;;;;;;;;;13.88;84.37;97737.98;1707011;82;24728;-89
2021/08/31 00:07:44;;;;;;;;;;;;;;;13.86;84.37;97738.13;1732247;81;20336;-89
2021/08/31 00:10:22;;;;;;;;;;;;;;;13.86;84.38;97743.87;1736148;81;24747;-88
2021/08/31 00:12:55;;;;;;;;;;;;;;;13.87;84.41;97745.05;1736083;81;22077;-89
2021/08/31 00:15:22;;;;;;;;;;;;;;;13.89;84.44;97743.11;1738018;81;26603;-89
2021/08/31 00:17:49;;;;;;;;;;;;;;;13.89;84.46;97744.42;1738850;82;24534;-89
2021/08/31 00:20:21;;;;;;;;;;;;;;;13.90;84.47;97743.94;1715919;81;20358;-89
2021/08/31 00:22:49;;;;;;;;;;;;;;;13.92;84.46;97743.30;1708424;82;25022;-89
2021/08/31 00:25:17;;;;;;;;;;;;;;;13.96;84.53;97749.46;1692372;84;21996;-89
2021/08/31 00:27:46;;;;;;;;;;;;;;;13.99;84.54;97750.95;1688558;82;26670;-89
2021/08/31 00:30:12;;;;;;;;;;;;;;;13.98;84.57;97751.92;1705164;83;24429;-84
2021/08/31 00:32:38;;;;;;;;;;;;;;;13.98;84.58;97751.44;1708185;84;20562;-85
2021/08/31 00:35:04;;;;;;;;;;;;;;;14.01;84.59;97745.08;1708419;84;24807;-88
2021/08/31 00:37:30;;;;;;;;;;;;;;;14.02;84.62;97742.28;1708810;83;22031;-88
2021/08/31 00:39:59;;;;;;;;;;;;;;;14.00;84.63;97738.98;1706213;84;21343;-88
2021/08/31 00:42:25;;;;;;;;;;;;;;;14.00;84.61;97740.30;1705904;84;24513;-88
2021/08/31 00:44:51;;;;;;;;;;;;;;;14.01;84.63;97742.44;1706102;83;20303;-88
2021/08/31 00:47:19;;;;;;;;;;;;;;;14.00;84.63;97745.56;1706987;84;20269;-88
2021/08/31 00:49:47;;;;;;;;;;;;;;;13.99;84.62;97739.95;1709440;84;22025;-88
2021/08/31 00:52:13;;;;;;;;;;;;;;;14.00;84.65;97736.35;1708123;84;25993;-88
2021/08/31 00:54:40;;;;;;;;;;;;;;;14.02;84.64;97738.84;1706295;84;25306;-88
2021/08/31 00:57:13;;;;;;;;;;;;;;;14.01;84.65;97741.95;1706904;84;20430;-88
2021/08/31 00:59:39;;;;;;;;;;;;;;;14.03;84.66;97733.41;1707293;83;24807;-89
2021/08/31 01:02:05;;;;;;;;;;;;;;;14.02;84.66;97734.90;1708768;84;21961;-89
2021/08/31 01:04:32;;;;;;;;;;;;;;;14.01;84.65;97736.70;1710366;84;26040;-89
2021/08/31 01:07:01;;;;;;;;;;;;;;;14.02;84.66;97735.70;1707420;84;25258;-88
2021/08/31 01:09:27;;;;;;;;;;;;;;;14.02;84.66;97733.07;1709753;84;20299;-89
2021/08/31 01:11:54;;;;;;;;;;;;;;;14.02;84.67;97738.33;1689106;84;25168;-89
2021/08/31 01:14:20;;;;;;;;;;;;;;;14.00;84.66;97738.98;1707123;84;22248;-89
2021/08/31 01:16:50;;;;;;;;;;;;;;;14.00;84.66;97740.78;1707064;84;25941;-88
2021/08/31 01:19:20;;;;;;;;;;;;;;;13.99;84.66;97732.06;1709368;80;25318;-89
2021/08/31 01:21:47;;;;;;;;;;;;;;;13.96;84.68;97737.63;1715684;83;20524;-88
2021/08/31 01:24:13;;;;;;;;;;;;;;;13.95;84.66;97733.33;1714177;83;24773;-89
2021/08/31 01:26:39;;;;;;;;;;;;;;;13.94;84.66;97730.35;1714862;83;20286;-88
2021/08/31 01:29:05;;;;;;;;;;;;;;;13.92;84.66;97734.09;1715125;83;21192;-88
2021/08/31 01:31:31;;;;;;;;;;;;;;;13.91;84.67;97728.51;1715412;82;20282;-88
2021/08/31 01:34:00;;;;;;;;;;;;;;;13.90;84.69;97727.68;1714677;83;20303;-88
2021/08/31 01:36:27;;;;;;;;;;;;;;;13.90;84.67;97725.05;1713347;83;25585;-88
2021/08/31 01:38:55;;;;;;;;;;;;;;;13.89;84.70;97726.02;1713035;83;22227;-88
2021/08/31 01:41:21;;;;;;;;;;;;;;;13.93;84.72;97714.70;1713574;83;26071;-88
2021/08/31 01:43:47;;;;;;;;;;;;;;;13.90;84.76;97711.06;1721672;82;24510;-88
2021/08/31 01:46:13;;;;;;;;;;;;;;;13.88;84.76;97704.63;1714816;83;20518;-88
2021/08/31 01:48:40;;;;;;;;;;;;;;;13.86;84.77;97711.82;1731351;81;20270;-88
2021/08/31 01:51:06;;;;;;;;;;;;;;;13.86;84.78;97714.45;1712550;83;21593;-88
2021/08/31 01:53:33;;;;;;;;;;;;;;;13.85;84.79;97715.45;1715816;83;25965;-88
2021/08/31 01:56:01;;;;;;;;;;;;;;;13.87;84.84;97704.28;1714308;83;24485;-89
2021/08/31 01:58:32;;;;;;;;;;;;;;;13.92;84.86;97706.47;1714623;83;20220;-88
2021/08/31 02:00:58;;;;;;;;;;;;;;;13.95;84.90;97714.08;1714696;83;24904;-88
2021/08/31 02:03:24;;;;;;;;;;;;;;;13.96;84.94;97722.33;1714879;83;21810;-89
2021/08/31 02:05:52;;;;;;;;;;;;;;;13.98;84.94;97722.98;1696002;83;22429;-88
2021/08/31 02:08:18;;;;;;;;;;;;;;;13.98;84.96;97729.08;1714967;83;24561;-89
2021/08/31 02:10:44;;;;;;;;;;;;;;;13.98;85.00;97720.36;1715148;83;20523;-89
2021/08/31 02:13:27;;;;;;;;;;;;;;;13.97;85.00;97726.10;1714715;83;24968;-89
2021/08/31 02:15:52;;;;;;;;;;;;;;;13.95;85.04;97720.66;1712886;83;22007;-89
2021/08/31 02:18:18;;;;;;;;;;;;;;;13.91;85.08;97723.25;1715342;83;25915;-89
2021/08/31 02:20:45;;;;;;;;;;;;;;;13.89;85.11;97714.66;1731931;80;24223;-89
2021/08/31 02:23:11;;;;;;;;;;;;;;;13.85;85.14;97718.08;1746128;80;20220;-90
2021/08/31 02:25:41;;;;;;;;;;;;;;;13.81;85.23;97716.20;1743712;80;24813;-91
2021/08/31 02:28:07;;;;;;;;;;;;;;;13.77;85.26;97717.47;1730299;80;21978;-89
2021/08/31 02:30:33;;;;;;;;;;;;;;;13.71;85.33;97718.53;1720853;82;25915;-89
2021/08/31 02:33:02;;;;;;;;;;;;;;;13.66;85.37;97713.70;1747128;80;24510;-89
2021/08/31 02:35:29;;;;;;;;;;;;;;;13.63;85.45;97715.33;1740881;81;20465;-88
2021/08/31 02:37:56;;;;;;;;;;;;;;;13.59;85.53;97713.93;1711558;81;24799;-89
2021/08/31 02:40:22;;;;;;;;;;;;;;;13.59;85.62;97710.47;1735267;82;21981;-88
2021/08/31 02:42:51;;;;;;;;;;;;;;;13.58;85.70;97704.38;1737642;82;26151;-89
2021/08/31 02:45:17;;;;;;;;;;;;;;;13.56;85.79;97711.61;1723234;82;24373;-88
2021/08/31 02:47:44;;;;;;;;;;;;;;;13.52;85.87;97709.41;1720795;81;20808;-88
2021/08/31 02:50:16;;;;;;;;;;;;;;;13.52;85.96;97706.78;1740569;80;24829;-88
2021/08/31 02:52:44;;;;;;;;;;;;;;;13.52;86.06;97702.36;1737176;81;21912;-88
2021/08/31 02:55:10;;;;;;;;;;;;;;;13.53;86.15;97707.13;1708319;83;26609;-88
2021/08/31 02:57:37;;;;;;;;;;;;;;;13.52;86.25;97704.98;1703974;82;24410;-88
2021/08/31 03:00:04;;;;;;;;;;;;;;;13.51;86.33;97707.27;1756054;80;20224;-88
2021/08/31 03:02:36;;;;;;;;;;;;;;;13.52;86.41;97701.04;1728148;81;25551;-88
2021/08/31 03:05:02;;;;;;;;;;;;;;;13.53;86.51;97701.36;1732560;82;21829;-89
2021/08/31 03:07:28;;;;;;;;;;;;;;;13.56;86.58;97701.09;1703403;81;25965;-89
2021/08/31 03:09:54;;;;;;;;;;;;;;;13.51;86.68;97702.00;1722917;82;20238;-89
2021/08/31 03:12:23;;;;;;;;;;;;;;;13.48;86.75;97702.27;1736880;81;20205;-89
2021/08/31 03:14:49;;;;;;;;;;;;;;;13.48;86.83;97698.33;1741855;80;24822;-89
2021/08/31 03:17:15;;;;;;;;;;;;;;;13.48;86.89;97695.70;1750843;81;20894;-89
2021/08/31 03:19:47;;;;;;;;;;;;;;;13.48;86.99;97697.50;1746126;80;21121;-89
2021/08/31 03:22:13;;;;;;;;;;;;;;;13.49;87.06;97695.22;1730408;81;24546;-89
2021/08/31 03:24:42;;;;;;;;;;;;;;;13.48;87.12;97694.88;1753815;79;20162;-89
2021/08/31 03:27:11;;;;;;;;;;;;;;;13.48;87.22;97694.39;1735037;80;24742;-89
2021/08/31 03:29:37;;;;;;;;;;;;;;;13.47;87.30;97695.39;1728843;81;21927;-89
2021/08/31 03:32:03;;;;;;;;;;;;;;;13.49;87.37;97692.11;1717574;81;21274;-89
2021/08/31 03:34:29;;;;;;;;;;;;;;;13.50;87.46;97689.83;1717738;81;24517;-89
2021/08/31 03:36:55;;;;;;;;;;;;;;;13.49;87.52;97688.16;1716578;81;20853;-90
2021/08/31 03:39:21;;;;;;;;;;;;;;;13.48;87.61;97689.13;1703972;83;24622;-88
2021/08/31 03:41:47;;;;;;;;;;;;;;;13.48;87.68;97687.81;1715513;81;20322;-89
2021/08/31 03:44:13;;;;;;;;;;;;;;;13.47;87.74;97687.50;1717786;83;26108;-89
2021/08/31 03:46:39;;;;;;;;;;;;;;;13.48;87.81;97688.30;1717464;81;24485;-89
2021/08/31 03:49:10;;;;;;;;;;;;;;;13.45;87.88;97682.86;1717869;83;20739;-89
2021/08/31 03:51:33;;;;;;;;;;;;;;;13.44;87.95;97686.45;1716195;81;24723;-88
2021/08/31 03:53:59;;;;;;;;;;;;;;;13.43;88.00;97683.96;1716984;82;22125;-88
2021/08/31 03:56:28;;;;;;;;;;;;;;;13.44;88.08;97684.31;1715731;81;25936;-89
2021/08/31 03:58:54;;;;;;;;;;;;;;;13.40;88.13;97681.98;1717609;83;25157;-90
2021/08/31 04:01:20;;;;;;;;;;;;;;;13.43;88.20;97681.33;1717009;81;20359;-89
2021/08/31 04:03:46;;;;;;;;;;;;;;;13.42;88.27;97681.81;1694529;82;20297;-90
2021/08/31 04:06:12;;;;;;;;;;;;;;;13.45;88.35;97685.48;1718476;82;20332;-90
2021/08/31 04:08:38;;;;;;;;;;;;;;;13.43;88.43;97680.84;1717746;82;26057;-90
2021/08/31 04:11:06;;;;;;;;;;;;;;;13.46;88.48;97691.09;1717311;81;20944;-90
2021/08/31 04:13:32;;;;;;;;;;;;;;;13.48;88.55;97685.19;1718208;83;20352;-89
2021/08/31 04:16:02;;;;;;;;;;;;;;;13.49;88.63;97686.85;1718059;83;24741;-90
2021/08/31 04:18:28;;;;;;;;;;;;;;;13.52;88.70;97684.44;1702433;82;21890;-89
2021/08/31 04:20:54;;;;;;;;;;;;;;;13.54;88.74;97681.16;1717361;81;25905;-90
2021/08/31 04:23:24;;;;;;;;;;;;;;;13.55;88.82;97684.13;1717454;83;20394;-89
2021/08/31 04:25:53;;;;;;;;;;;;;;;13.57;88.88;97683.03;1718135;81;20225;-89
2021/08/31 04:28:20;;;;;;;;;;;;;;;13.58;88.93;97679.92;1696960;83;39953;-88
2021/08/31 04:30:47;;;;;;;;;;;;;;;13.56;88.97;97678.74;1718352;83;22055;-88
2021/08/31 04:33:13;;;;;;;;;;;;;;;13.57;89.03;97674.31;1716609;83;27882;-89
2021/08/31 04:35:39;;;;;;;;;;;;;;;13.61;89.10;97674.36;1716504;81;20323;-88
2021/08/31 04:38:05;;;;;;;;;;;;;;;13.59;89.14;97670.55;1717457;81;20483;-89
2021/08/31 04:40:32;;;;;;;;;;;;;;;13.59;89.20;97668.41;1718498;81;20270;-88
2021/08/31 04:42:58;;;;;;;;;;;;;;;13.59;89.23;97665.30;1716741;81;22046;-88
2021/08/31 04:45:24;;;;;;;;;;;;;;;13.63;89.28;97665.85;1716645;81;25936;-89
2021/08/31 04:47:50;;;;;;;;;;;;;;;13.63;89.33;97665.38;1718008;83;24579;-90
2021/08/31 04:50:16;;;;;;;;;;;;;;;13.64;89.36;97662.23;1718637;82;20159;-89
2021/08/31 04:52:42;;;;;;;;;;;;;;;13.67;89.42;97659.33;1719995;81;20789;-90
2021/08/31 04:55:16;;;;;;;;;;;;;;;13.66;89.47;97664.23;1717520;83;21929;-90
2021/08/31 04:57:46;;;;;;;;;;;;;;;13.62;89.52;97663.70;1717721;83;26141;-90
2021/08/31 05:00:12;;;;;;;;;;;;;;;13.63;89.56;97668.48;1720302;81;25244;-90
2021/08/31 05:02:39;;;;;;;;;;;;;;;13.61;89.61;97672.56;1716852;83;20313;-89
2021/08/31 05:05:09;;;;;;;;;;;;;;;13.63;89.63;97669.80;1717522;81;24724;-91
2021/08/31 05:07:36;;;;;;;;;;;;;;;13.55;89.68;97662.63;1723583;81;21998;-90
2021/08/31 05:10:07;;;;;;;;;;;;;;;13.65;89.74;97673.09;1716591;83;26014;-90
2021/08/31 05:12:36;;;;;;;;;;;;;;;13.66;89.78;97676.06;1716923;81;24523;-90
2021/08/31 05:15:10;;;;;;;;;;;;;;;13.67;89.84;97669.36;1717889;83;20579;-90
2021/08/31 05:17:39;;;;;;;;;;;;;;;13.66;89.86;97676.90;1717385;83;24743;-91
2021/08/31 05:20:06;;;;;;;;;;;;;;;13.67;89.92;97670.67;1718101;83;22797;-90
2021/08/31 05:22:38;;;;;;;;;;;;;;;13.67;89.94;97665.90;1718192;81;26195;-90
2021/08/31 05:25:04;;;;;;;;;;;;;;;13.67;89.99;97670.67;1718960;83;24453;-91
2021/08/31 05:27:31;;;;;;;;;;;;;;;13.67;90.06;97665.41;1719707;83;20344;-90
2021/08/31 05:29:57;;;;;;;;;;;;;;;13.69;90.08;97660.81;1721504;81;24743;-91
2021/08/31 05:32:25;;;;;;;;;;;;;;;13.75;90.17;97668.13;1718478;81;21981;-89
2021/08/31 05:34:53;;;;;;;;;;;;;;;13.77;90.23;97668.83;1717668;81;21049;-89
2021/08/31 05:37:19;;;;;;;;;;;;;;;13.80;90.28;97658.52;1719904;81;24490;-90
2021/08/31 05:39:45;;;;;;;;;;;;;;;13.81;90.37;97658.34;1718705;81;20538;-90
2021/08/31 05:42:12;;;;;;;;;;;;;;;13.85;90.43;97652.81;1719199;81;25029;-90
2021/08/31 05:44:39;;;;;;;;;;;;;;;13.89;90.48;97660.26;1718656;81;22123;-89
2021/08/31 05:47:05;;;;;;;;;;;;;;;13.94;90.53;97663.76;1718286;81;26131;-89
2021/08/31 05:49:34;;;;;;;;;;;;;;;13.96;90.60;97663.13;1718278;83;24434;-90
2021/08/31 05:52:01;;;;;;;;;;;;;;;13.97;90.65;97659.02;1719783;81;20265;-89
2021/08/31 05:54:29;;;;;;;;;;;;;;;14.00;90.67;97660.55;1718427;81;24919;-89
2021/08/31 05:56:56;;;;;;;;;;;;;;;14.02;90.71;97661.23;1718757;81;21968;-89
2021/08/31 05:59:23;;;;;;;;;;;;;;;14.06;90.75;97663.91;1719658;83;25939;-89
2021/08/31 06:01:49;;;;;;;;;;;;;;;14.07;90.78;97666.88;1718779;81;24438;-88
2021/08/31 06:04:16;;;;;;;;;;;;;;;14.07;90.80;97661.62;1718758;83;20320;-89
2021/08/31 06:06:43;;;;;;;;;;;;;;;14.08;90.82;97665.88;1718848;82;24757;-89
2021/08/31 06:09:09;;;;;;;;;;;;;;;14.12;90.83;97663.31;1718763;81;22052;-89
2021/08/31 06:11:41;;;;;;;;;;;;;;;14.14;90.85;97666.13;1719934;83;26789;-89
2021/08/31 06:14:07;;;;;;;;;;;;;;;14.15;90.91;97668.27;1720806;81;24554;-89
2021/08/31 06:16:34;;;;;;;;;;;;;;;14.15;90.92;97666.95;1719249;81;20462;-89
2021/08/31 06:19:00;;;;;;;;;;;;;;;14.16;90.95;97673.39;1718631;81;24794;-89
2021/08/31 06:21:26;;;;;;;;;;;;;;;14.16;90.95;97672.08;1723177;80;22602;-89
2021/08/31 06:23:54;;;;;;;;;;;;;;;14.18;90.96;97677.20;1732663;82;26167;-89
2021/08/31 06:26:23;;;;;;;;;;;;;;;14.21;91.00;97671.63;1733799;81;24488;-89
2021/08/31 06:28:49;;;;;;;;;;;;;;;14.25;91.01;97672.98;1733975;82;20338;-89
2021/08/31 06:31:15;;;;;;;;;;;;;;;14.27;91.00;97674.98;1734379;81;20228;-89
2021/08/31 06:33:46;;;;;;;;;;;;;;;14.29;91.02;97682.74;1735848;82;20235;-88
2021/08/31 06:36:15;;;;;;;;;;;;;;;14.28;91.04;97688.49;1735014;81;25991;-88
2021/08/31 06:38:49;;;;;;;;;;;;;;;14.27;91.05;97693.41;1734777;82;24435;-90
2021/08/31 06:41:16;;;;;;;;;;;;;;;14.22;91.02;97688.59;1733342;81;20598;-90
2021/08/31 06:43:45;;;;;;;;;;;;;;;14.24;91.00;97689.73;1734517;81;24843;-90
2021/08/31 06:46:18;;;;;;;;;;;;;;;14.23;91.01;97690.26;1734349;81;21954;-90
2021/08/31 06:48:44;;;;;;;;;;;;;;;14.21;91.01;97682.16;1735060;82;26005;-91
2021/08/31 06:51:13;;;;;;;;;;;;;;;14.22;91.04;97690.39;1734601;82;24640;-89
2021/08/31 06:53:41;;;;;;;;;;;;;;;14.22;91.05;97691.71;1736278;81;20526;-90
2021/08/31 06:56:07;;;;;;;;;;;;;;;14.23;91.05;97690.26;1734600;82;24847;-90
2021/08/31 06:58:36;;;;;;;;;;;;;;;14.24;91.06;97699.78;1734946;82;21966;-90
2021/08/31 07:01:03;;;;;;;;;;;;;;;14.22;91.09;97702.23;1734755;82;26136;-91
2021/08/31 07:03:33;;;;;;;;;;;;;;;14.17;91.08;97707.95;1710291;81;20462;-91
2021/08/31 07:05:59;;;;;;;;;;;;;;;14.15;91.10;97704.63;1731276;82;20212;-89
2021/08/31 07:08:26;;;;;;;;;;;;;;;14.15;91.10;97709.05;1734140;81;24808;-89
2021/08/31 07:10:52;;;;;;;;;;;;;;;14.16;91.10;97712.03;1732359;82;22062;-89
2021/08/31 07:13:18;;;;;;;;;;;;;;;14.14;91.12;97709.54;1734177;81;21167;-89
2021/08/31 07:15:44;;;;;;;;;;;;;;;14.19;91.13;97707.30;1734973;81;24382;-89
2021/08/31 07:18:11;;;;;;;;;;;;;;;14.18;91.16;97708.78;1732198;82;20243;-89
2021/08/31 07:20:37;;;;;;;;;;;;;;;14.17;91.16;97713.21;1732495;81;24792;-88
2021/08/31 07:23:06;;;;;;;;;;;;;;;14.17;91.18;97715.02;1763960;80;20231;-89
2021/08/31 07:25:32;;;;;;;;;;;;;;;14.18;91.17;97720.10;1762332;80;25643;-89
2021/08/31 07:27:58;;;;;;;;;;;;;;;14.17;91.23;97725.54;1750031;80;24902;-89
2021/08/31 07:30:24;;;;;;;;;;;;;;;14.17;91.24;97724.22;1752241;81;20793;-89
2021/08/31 07:32:56;;;;;;;;;;;;;;;14.14;91.26;97724.02;1712994;83;20211;-89
2021/08/31 07:35:22;;;;;;;;;;;;;;;14.15;91.27;97723.05;1750475;80;22029;-89
2021/08/31 07:37:49;;;;;;;;;;;;;;;14.18;91.30;97737.21;1753837;80;26004;-89
2021/08/31 07:40:15;;;;;;;;;;;;;;;14.19;91.33;97730.14;1748758;80;24454;-89
2021/08/31 07:42:41;;;;;;;;;;;;;;;14.21;91.36;97732.98;1711558;83;20213;-89
2021/08/31 07:45:09;;;;;;;;;;;;;;;14.24;91.38;97727.42;1720884;82;20278;-89
2021/08/31 07:47:36;;;;;;;;;;;;;;;14.25;91.39;97724.30;1708893;83;22864;-88
2021/08/31 07:50:03;;;;;;;;;;;;;;;14.25;91.44;97719.03;1745649;80;26001;-90
2021/08/31 07:52:29;;;;;;;;;;;;;;;14.26;91.46;97723.33;1739480;81;24587;-90
2021/08/31 07:54:55;;;;;;;;;;;;;;;14.24;91.47;97720.00;1747934;80;20341;-91
2021/08/31 07:57:21;;;;;;;;;;;;;;;14.24;91.49;97714.74;1733080;82;20359;-90
2021/08/31 07:59:47;;;;;;;;;;;;;;;14.25;91.52;97718.55;1734090;81;20764;-91
2021/08/31 08:02:26;;;;;;;;;;;;;;;14.25;91.56;97718.55;1735764;81;26165;-89
2021/08/31 08:04:58;;;;;;;;;;;;;;;14.25;91.62;97719.86;1734196;82;24518;-90
2021/08/31 08:07:26;;;;;;;;;;;;;;;14.30;91.66;97721.22;1721478;81;20207;-90
2021/08/31 08:09:54;;;;;;;;;;;;;;;14.36;91.71;97718.00;1733801;81;24576;-90
2021/08/31 08:12:26;;;;;;;;;;;;;;;14.42;91.78;97718.27;1736429;82;22022;-90
2021/08/31 08:14:52;;;;;;;;;;;;;;;14.49;91.84;97720.66;1733460;81;26074;-90
2021/08/31 08:17:19;;;;;;;;;;;;;;;14.54;91.91;97720.20;1735757;81;24485;-89
2021/08/31 08:19:48;;;;;;;;;;;;;;;14.56;91.95;97727.48;1733510;81;20482;-90
2021/08/31 08:22:14;;;;;;;;;;;;;;;14.59;92.02;97722.73;1734665;81;25018;-90
2021/08/31 08:24:41;;;;;;;;;;;;;;;14.61;92.04;97719.96;1746464;82;22037;-90
2021/08/31 08:27:09;;;;;;;;;;;;;;;14.62;92.05;97724.22;1717238;82;21202;-90
2021/08/31 08:29:38;;;;;;;;;;;;;;;14.63;92.08;97713.55;1742428;82;21202;-90
2021/08/31 08:32:08;;;;;;;;;;;;;;;14.68;92.11;97720.99;1742961;80;20212;-90
2021/08/31 08:34:34;;;;;;;;;;;;;;;14.80;92.16;97716.33;1744351;80;24848;-90
2021/08/31 08:37:02;;;;;;;;;;;;;;;14.85;92.20;97717.54;1765023;80;22065;-90
2021/08/31 08:39:31;;;;;;;;;;;;;;;14.90;92.25;97719.71;1702659;81;25497;-91
2021/08/31 08:41:57;;;;;;;;;;;;;;;14.91;92.25;97713.47;1762606;80;24523;-89
2021/08/31 08:44:25;;;;;;;;;;;;;;;14.91;92.27;97722.20;1764177;80;20228;-88
2021/08/31 08:46:56;;;;;;;;;;;;;;;14.92;92.28;97718.59;1760180;80;25316;-89
2021/08/31 08:49:23;;;;;;;;;;;;;;;14.97;92.28;97732.14;1763322;80;21828;-90
2021/08/31 08:51:51;;;;;;;;;;;;;;;15.01;92.29;97730.02;1766210;80;26047;-90
2021/08/31 08:54:19;;;;;;;;;;;;;;;15.08;92.30;97736.34;1748370;79;20250;-90
2021/08/31 08:56:52;;;;;;;;;;;;;;;15.13;92.35;97734.08;1755692;79;20587;-90
2021/08/31 08:59:18;;;;;;;;;;;;;;;15.16;92.36;97727.20;1757315;80;24864;-90
2021/08/31 09:01:47;;;;;;;;;;;;;;;15.15;92.37;97729.50;1760004;80;21934;-90
2021/08/31 09:04:16;;;;;;;;;;;;;;;15.18;92.36;97737.57;1759385;79;26788;-91
2021/08/31 09:06:47;;;;;;;;;;;;;;;15.22;92.40;97731.84;1758945;79;24667;-90
2021/08/31 09:09:13;;;;;;;;;;;;;;;15.26;92.44;97737.16;1757924;80;20288;-89
2021/08/31 09:11:41;;;;;;;;;;;;;;;15.35;92.49;97738.03;1723846;83;24731;-90
2021/08/31 09:14:18;;;;;;;;;;;;;;;15.39;92.52;97741.52;1721715;82;22121;-90
2021/08/31 09:16:45;;;;;;;;;;;;;;;15.44;92.56;97742.38;1727749;82;26039;-90
2021/08/31 09:19:14;;;;;;;;;;;;;;;15.44;92.58;97739.25;1755429;79;24447;-90
2021/08/31 09:21:41;;;;;;;;;;;;;;;15.43;92.57;97731.52;1764977;79;20170;-90
2021/08/31 09:24:07;;;;;;;;;;;;;;;15.39;92.56;97729.66;1748780;80;24835;-90
2021/08/31 09:26:38;;;;;;;;;;;;;;;15.36;92.54;97728.66;1743330;81;22317;-90
2021/08/31 09:29:21;;;;;;;;;;;;;;;15.39;92.53;97728.34;1744623;80;25979;-90
2021/08/31 09:31:51;;;;;;;;;;;;;;;15.39;92.52;97732.78;1742248;81;24593;-90
2021/08/31 09:34:36;;;;;;;;;;;;;;;15.43;92.51;97729.71;1742966;81;20326;-90
2021/08/31 09:37:21;;;;;;;;;;;;;;;15.42;92.52;97734.64;1745548;80;24792;-91
2021/08/31 09:40:07;;;;;;;;;;;;;;;15.42;92.49;97733.33;1744987;80;21987;-90
2021/08/31 09:42:35;;;;;;;;;;;;;;;15.40;92.47;97733.95;1742648;81;21235;-90
2021/08/31 09:45:04;;;;;;;;;;;;;;;15.44;92.47;97739.25;1742420;81;24513;-90
2021/08/31 09:47:36;;;;;;;;;;;;;;;15.50;92.50;97723.30;1744255;81;20245;-90
2021/08/31 09:50:03;;;;;;;;;;;;;;;15.61;92.55;97726.20;1742472;81;25865;-90
2021/08/31 09:52:35;;;;;;;;;;;;;;;15.66;92.62;97729.20;1742910;81;21982;-90
2021/08/31 09:55:03;;;;;;;;;;;;;;;15.72;92.66;97723.30;1742979;81;26132;-90
2021/08/31 09:57:35;;;;;;;;;;;;;;;15.79;92.71;97724.34;1742649;81;24540;-90
2021/08/31 10:00:03;;;;;;;;;;;;;;;15.81;92.76;97721.06;1744367;81;20267;-90
2021/08/31 10:02:33;;;;;;;;;;;;;;;15.85;92.76;97727.67;1745172;81;24942;-91
2021/08/31 10:05:00;;;;;;;;;;;;;;;15.83;92.77;97719.07;1742263;80;22048;-91
2021/08/31 10:07:29;;;;;;;;;;;;;;;15.78;92.77;97729.27;1743705;82;26047;-91
2021/08/31 10:09:58;;;;;;;;;;;;;;;15.76;92.74;97729.45;1742576;82;24523;-90
2021/08/31 10:12:24;;;;;;;;;;;;;;;15.77;92.73;97722.34;1743089;81;20341;-90
2021/08/31 10:14:58;;;;;;;;;;;;;;;15.77;92.70;97723.16;1741053;81;24723;-90
2021/08/31 10:17:27;;;;;;;;;;;;;;;15.76;92.72;97718.06;1743970;81;21998;-90
2021/08/31 10:19:58;;;;;;;;;;;;;;;15.77;92.68;97724.97;1744645;81;26027;-91
2021/08/31 10:22:27;;;;;;;;;;;;;;;15.77;92.68;97731.08;1744772;81;24515;-91
2021/08/31 10:24:54;;;;;;;;;;;;;;;15.80;92.67;97724.68;1719390;81;20403;-90
2021/08/31 10:27:35;;;;;;;;;;;;;;;15.79;92.66;97722.53;1720241;83;24840;-91
2021/08/31 10:30:15;;;;;;;;;;;;;;;15.81;92.63;97723.70;1719275;81;22179;-90
2021/08/31 10:32:58;;;;;;;;;;;;;;;15.78;92.65;97722.19;1717873;81;25995;-90
2021/08/31 10:35:39;;;;;;;;;;;;;;;15.78;92.60;97726.63;1718447;81;24689;-92
2021/08/31 10:38:06;;;;;;;;;;;;;;;15.79;92.59;97733.57;1719554;81;20221;-88
2021/08/31 10:40:43;;;;;;;;;;;;;;;15.77;92.62;97727.13;1719838;81;24800;-91
2021/08/31 10:43:17;;;;;;;;;;;;;;;15.76;92.62;97736.53;1720093;83;22248;-91
2021/08/31 10:45:45;;;;;;;;;;;;;;;15.74;92.63;97732.73;1720632;81;26645;-92
2021/08/31 10:48:22;;;;;;;;;;;;;;;15.77;92.64;97742.95;1719182;81;24462;-90
2021/08/31 10:51:03;;;;;;;;;;;;;;;15.79;92.68;97742.31;1719857;83;20269;-91
2021/08/31 10:53:46;;;;;;;;;;;;;;;15.83;92.72;97744.14;1721124;81;24875;-91
2021/08/31 10:56:19;;;;;;;;;;;;;;;15.82;92.77;97744.63;1700173;82;20482;-90
2021/08/31 10:58:47;;;;;;;;;;;;;;;15.83;92.78;97744.14;1717382;81;25993;-91
2021/08/31 11:01:15;;;;;;;;;;;;;;;15.83;92.81;97748.09;1720262;81;24611;-90
2021/08/31 11:03:43;;;;;;;;;;;;;;;15.78;92.80;97751.70;1719452;82;20368;-90
2021/08/31 11:06:18;;;;;;;;;;;;;;;15.73;92.81;97759.25;1719397;81;24735;-90
2021/08/31 11:08:46;;;;;;;;;;;;;;;15.72;92.83;97752.31;1720134;81;22180;-90
2021/08/31 11:11:17;;;;;;;;;;;;;;;15.72;92.86;97757.11;1719176;81;25934;-90
2021/08/31 11:13:55;;;;;;;;;;;;;;;15.73;92.87;97753.98;1717484;81;25419;-90
2021/08/31 11:16:29;;;;;;;;;;;;;;;15.73;92.89;97756.12;1718014;83;20460;-90
2021/08/31 11:18:55;;;;;;;;;;;;;;;15.75;92.94;97764.73;1718884;81;25617;-90
2021/08/31 11:21:21;;;;;;;;;;;;;;;15.78;92.98;97764.41;1722741;81;21903;-90
2021/08/31 11:23:47;;;;;;;;;;;;;;;15.79;93.03;97770.51;1721199;80;25976;-89
2021/08/31 11:26:23;;;;;;;;;;;;;;;15.82;93.11;97764.41;1701298;84;24261;-90
2021/08/31 11:28:49;;;;;;;;;;;;;;;15.88;93.16;97770.88;1682235;84;20295;-90
2021/08/31 11:31:18;;;;;;;;;;;;;;;15.94;93.25;97763.66;1669106;84;24790;-90
2021/08/31 11:33:45;;;;;;;;;;;;;;;15.97;93.31;97758.09;1688224;84;21997;-90
2021/08/31 11:36:16;;;;;;;;;;;;;;;16.02;93.39;97758.44;1714288;82;25655;-90
2021/08/31 11:38:50;;;;;;;;;;;;;;;16.08;93.43;97753.02;1704750;82;24484;-90
2021/08/31 11:41:26;;;;;;;;;;;;;;;16.14;93.49;97759.83;1692069;83;20246;-90
2021/08/31 11:44:11;;;;;;;;;;;;;;;16.18;93.56;97760.33;1708879;83;24751;-91
2021/08/31 11:46:39;;;;;;;;;;;;;;;16.27;93.63;97760.19;1686469;83;21967;-91
2021/08/31 11:49:10;;;;;;;;;;;;;;;16.32;93.71;97766.31;1685849;84;26173;-92
2021/08/31 11:51:41;;;;;;;;;;;;;;;16.38;93.75;97764.36;1710532;83;24466;-92
2021/08/31 11:54:10;;;;;;;;;;;;;;;16.39;93.79;97772.62;1690392;83;20176;-92
2021/08/31 11:56:36;;;;;;;;;;;;;;;16.40;93.81;97764.20;1714806;82;24764;-92
2021/08/31 11:59:02;;;;;;;;;;;;;;;16.43;93.79;97763.88;1702934;82;21954;-91
2021/08/31 12:01:32;;;;;;;;;;;;;;;16.42;93.83;97756.44;1702587;82;25998;-91
2021/08/31 12:04:19;;;;;;;;;;;;;;;16.49;93.87;97750.03;1698238;82;24542;-91
2021/08/31 12:06:47;;;;;;;;;;;;;;;16.53;93.93;97744.26;1713092;83;20239;-92
2021/08/31 12:09:15;;;;;;;;;;;;;;;16.66;94.00;97755.23;1708409;82;24716;-91
2021/08/31 12:11:45;;;;;;;;;;;;;;;16.66;94.02;97758.36;1708085;83;22088;-91
2021/08/31 12:14:13;;;;;;;;;;;;;;;16.70;94.05;97755.72;1709212;82;26127;-90
2021/08/31 12:16:49;;;;;;;;;;;;;;;16.72;94.06;97745.34;1709937;82;24422;-90
2021/08/31 12:19:19;;;;;;;;;;;;;;;16.77;94.07;97743.53;1712483;82;20258;-91
2021/08/31 12:22:07;;;;;;;;;;;;;;;16.79;94.09;97745.52;1708907;82;24961;-92
2021/08/31 12:24:34;;;;;;;;;;;;;;;16.74;94.06;97751.80;1716949;81;22022;-90
2021/08/31 12:27:08;;;;;;;;;;;;;;;16.69;94.03;97758.06;1702838;84;26082;-89
2021/08/31 12:29:48;;;;;;;;;;;;;;;16.66;93.97;97755.23;1719904;83;24415;-90
2021/08/31 12:32:31;;;;;;;;;;;;;;;16.68;93.99;97753.27;1737702;81;20210;-92
2021/08/31 12:35:03;;;;;;;;;;;;;;;16.66;94.00;97760.52;1742747;81;25458;-92
2021/08/31 12:37:31;;;;;;;;;;;;;;;16.70;94.01;97764.97;1738118;82;22053;-92
2021/08/31 12:40:10;;;;;;;;;;;;;;;16.74;94.05;97761.04;1702110;84;26051;-92
2021/08/31 12:42:38;;;;;;;;;;;;;;;16.71;94.07;97756.89;1685622;84;24005;-92
2021/08/31 12:45:06;;;;;;;;;;;;;;;16.73;94.07;97749.64;1724925;83;20302;-91
2021/08/31 12:47:42;;;;;;;;;;;;;;;16.70;94.06;97748.62;1727083;81;24802;-92
2021/08/31 12:50:14;;;;;;;;;;;;;;;16.73;94.09;97746.17;1712482;81;21990;-92
2021/08/31 12:53:10;;;;;;;;;;;;;;;16.74;94.08;97749.15;1726982;83;26800;-92
2021/08/31 12:55:41;;;;;;;;;;;;;;;16.77;94.09;97740.05;1727175;81;25092;-93